Time;durP1;ratioP1;P1;durP2;ratioP2;P2;SDS_P1;SDS_P2;PMS_P1;PMS_P2;Temp;Humidity;BMP_temperature;BMP_pressure;BME280_temperature;BME280_humidity;BME280_pressure;Samples;Min_cycle;Max_cycle;Signal;HPM_P1;HPM_P2
2022/06/16 00:01:11;;;;;;;5.25;4.53;;;17.30;99.90;;;;;;5074823;28;20119;-39
2022/06/16 00:03:37;;;;;;;5.05;4.55;;;17.40;99.90;;;;;;5081891;28;20028;-38
2022/06/16 00:06:02;;;;;;;5.03;4.53;;;17.40;99.90;;;;;;5089683;28;20028;-36
2022/06/16 00:08:28;;;;;;;5.13;4.43;;;17.30;99.90;;;;;;5081923;28;20025;-37
2022/06/16 00:13:39;;;;;;;5.28;4.72;;;16.70;99.90;;;;;;5081728;28;20081;-35
2022/06/16 00:16:06;;;;;;;6.15;4.97;;;16.60;99.90;;;;;;5075960;28;20089;-38
2022/06/16 00:18:32;;;;;;;5.35;4.10;;;16.60;99.90;;;;;;5077103;28;20036;-39
2022/06/16 00:20:58;;;;;;;4.57;4.18;;;16.70;99.90;;;;;;5078511;28;20024;-39
2022/06/16 00:23:23;;;;;;;6.50;4.65;;;16.80;99.90;;;;;;5080612;28;20032;-36
2022/06/16 00:25:49;;;;;;;5.15;4.65;;;16.70;99.90;;;;;;5078110;28;20032;-39
2022/06/16 00:28:15;;;;;;;5.57;4.88;;;16.60;99.90;;;;;;5082563;28;20433;-37
2022/06/16 00:30:41;;;;;;;5.07;4.68;;;16.30;99.90;;;;;;5078105;27;20054;-39
2022/06/16 00:33:07;;;;;;;5.20;4.70;;;16.30;99.90;;;;;;5077247;28;20409;-38
2022/06/16 00:35:33;;;;;;;4.88;4.38;;;16.50;99.90;;;;;;5079459;28;20036;-39
2022/06/16 00:37:58;;;;;;;5.55;4.55;;;16.50;99.90;;;;;;5078885;28;20024;-39
2022/06/16 00:40:24;;;;;;;5.00;4.50;;;16.60;99.90;;;;;;5079648;28;20161;-36
2022/06/16 00:42:50;;;;;;;4.57;4.18;;;16.60;99.90;;;;;;5083557;28;20030;-39
2022/06/16 00:45:44;;;;;;;4.75;4.15;;;16.70;99.90;;;;;;5079319;28;20033;-35
2022/06/16 00:48:15;;;;;;;6.30;4.13;;;16.70;99.90;;;;;;5073591;28;20048;-37
2022/06/16 00:50:42;;;;;;;5.53;5.03;;;16.70;99.90;;;;;;5071118;28;20515;-37
2022/06/16 00:53:08;;;;;;;4.72;4.30;;;16.00;99.90;;;;;;5071811;28;20032;-36
2022/06/16 00:55:34;;;;;;;4.75;4.35;;;15.70;99.90;;;;;;5076622;28;20402;-37
2022/06/16 00:58:00;;;;;;;4.88;4.25;;;15.80;99.90;;;;;;5071249;28;20052;-39
2022/06/16 01:02:52;;;;;;;7.32;4.65;;;16.10;99.90;;;;;;5084356;28;20028;-33
2022/06/16 01:05:18;;;;;;;5.32;4.43;;;16.20;99.90;;;;;;5080447;28;20057;-32
2022/06/16 01:07:46;;;;;;;5.43;4.25;;;16.30;99.90;;;;;;5075437;28;20025;-33
2022/06/16 01:10:15;;;;;;;4.93;4.43;;;16.30;99.90;;;;;;5083351;28;20431;-34
2022/06/16 01:16:15;;;;;;;4.82;4.40;;;16.00;99.90;;;;;;5082533;28;20071;-35
2022/06/16 01:18:50;;;;;;;5.40;4.53;;;16.20;99.90;;;;;;5069816;28;20048;-33
2022/06/16 01:21:34;;;;;;;5.18;4.68;;;16.20;99.90;;;;;;5076848;28;20032;-34
2022/06/16 01:24:07;;;;;;;5.68;4.60;;;16.00;99.90;;;;;;5075957;28;20031;-32
2022/06/16 01:26:41;;;;;;;6.65;4.70;;;15.70;99.90;;;;;;5073091;28;20020;-32
2022/06/16 01:29:34;;;;;;;5.13;4.65;;;15.70;99.90;;;;;;5070202;28;20037;-32
2022/06/16 01:32:13;;;;;;;5.82;4.93;;;15.70;99.90;;;;;;5074483;28;20043;-32
2022/06/16 01:34:38;;;;;;;4.68;4.28;;;15.70;99.90;;;;;;5078702;28;20619;-32
2022/06/16 01:37:07;;;;;;;7.00;4.82;;;15.70;99.90;;;;;;5080602;28;20035;-32
2022/06/16 01:39:36;;;;;;;6.03;4.80;;;15.80;99.90;;;;;;5081202;28;20028;-33
2022/06/16 01:42:20;;;;;;;5.10;4.65;;;15.80;99.90;;;;;;5080602;28;20024;-33
2022/06/16 01:45:19;;;;;;;5.40;4.65;;;15.80;99.90;;;;;;5082604;28;20059;-32
2022/06/16 01:47:49;;;;;;;9.95;5.10;;;15.90;99.90;;;;;;5077603;28;20020;-33
2022/06/16 01:50:24;;;;;;;5.65;5.05;;;15.80;99.90;;;;;;5076177;28;20036;-36
2022/06/16 01:53:15;;;;;;;6.00;4.90;;;15.80;99.90;;;;;;5072796;28;20153;-33
2022/06/16 01:55:50;;;;;;;7.95;4.78;;;15.90;99.90;;;;;;5086459;28;20031;-35
2022/06/16 01:58:36;;;;;;;4.93;4.45;;;16.00;99.90;;;;;;5080203;28;20581;-33
2022/06/16 02:01:07;;;;;;;5.32;4.82;;;16.10;99.90;;;;;;5085553;27;20044;-33
2022/06/16 02:03:42;;;;;;;4.70;4.30;;;16.10;99.90;;;;;;5084930;28;20119;-34
2022/06/16 02:06:17;;;;;;;5.78;4.80;;;16.00;99.90;;;;;;5079377;28;21811;-33
2022/06/16 02:08:51;;;;;;;5.55;4.95;;;15.70;99.90;;;;;;5078387;28;20032;-33
2022/06/16 02:11:19;;;;;;;4.97;4.57;;;15.70;99.90;;;;;;5078608;28;20028;-32
2022/06/16 02:13:51;;;;;;;6.10;4.65;;;15.70;99.90;;;;;;5084572;28;20397;-32
2022/06/16 02:16:23;;;;;;;5.00;4.22;;;15.70;99.90;;;;;;5078092;28;20055;-32
2022/06/16 02:18:51;;;;;;;5.50;4.60;;;15.60;99.90;;;;;;5084822;28;20060;-32
2022/06/16 02:21:23;;;;;;;6.18;4.28;;;15.50;99.90;;;;;;5076972;28;20119;-33
2022/06/16 02:23:49;;;;;;;5.22;4.72;;;15.10;99.90;;;;;;5079020;28;20036;-31
2022/06/16 02:26:15;;;;;;;6.75;5.18;;;15.10;99.90;;;;;;5080575;28;20039;-32
2022/06/16 02:28:53;;;;;;;5.22;4.75;;;15.10;99.90;;;;;;5082457;28;20028;-31
2022/06/16 02:31:23;;;;;;;;;;;14.80;99.90;;;;;;5080105;27;20036;-33
2022/06/16 02:33:51;;;;;;;5.80;5.20;;;14.80;99.90;;;;;;5106590;27;19954;-31
2022/06/16 02:36:48;;;;;;;7.85;5.55;;;14.50;99.90;;;;;;5083201;28;20024;-31
2022/06/16 02:39:24;;;;;;;9.43;6.00;;;14.50;99.90;;;;;;5063475;28;20040;-31
2022/06/16 02:42:07;;;;;;;7.45;5.63;;;14.50;99.90;;;;;;5080946;28;20035;-31
2022/06/16 02:44:34;;;;;;;7.28;6.43;;;14.50;99.90;;;;;;5082267;28;20082;-32
2022/06/16 02:47:12;;;;;;;6.50;5.63;;;14.70;99.90;;;;;;5080594;28;20031;-31
2022/06/16 02:50:04;;;;;;;7.15;5.57;;;14.70;99.90;;;;;;5084933;28;20575;-32
2022/06/16 02:52:39;;;;;;;5.75;5.25;;;15.00;99.90;;;;;;5070528;28;20531;-32
2022/06/16 02:55:32;;;;;;;6.57;5.40;;;15.10;99.90;;;;;;5074306;28;20460;-31
2022/06/16 02:58:00;;;;;;;6.63;5.57;;;15.20;99.90;;;;;;5078669;28;20085;-31
2022/06/16 03:00:36;;;;;;;7.50;5.45;;;15.10;99.90;;;;;;5080004;27;20024;-31
2022/06/16 03:03:26;;;;;;;5.80;5.18;;;15.00;99.90;;;;;;5076751;28;20016;-32
2022/06/16 03:05:54;;;;;;;6.25;5.45;;;14.90;99.90;;;;;;5074910;28;20107;-31
2022/06/16 03:08:22;;;;;;;6.18;5.20;;;14.90;99.90;;;;;;5077373;28;20029;-32
2022/06/16 03:10:51;;;;;;;5.38;4.78;;;14.90;99.90;;;;;;5076727;28;20613;-32
2022/06/16 03:13:25;;;;;;;6.30;5.28;;;14.80;99.90;;;;;;5076533;28;20024;-32
2022/06/16 03:15:53;;;;;;;7.90;5.35;;;14.90;99.90;;;;;;5081641;28;20027;-32
2022/06/16 03:18:20;;;;;;;9.13;5.50;;;14.80;99.90;;;;;;5089855;28;20147;-32
2022/06/16 03:20:47;;;;;;;6.20;5.47;;;14.70;99.90;;;;;;5076851;28;21043;-32
2022/06/16 03:23:13;;;;;;;6.90;5.63;;;14.70;99.90;;;;;;5076095;28;20028;-33
2022/06/16 03:25:40;;;;;;;8.77;5.28;;;14.70;99.90;;;;;;5079691;28;20456;-32
2022/06/16 03:28:07;;;;;;;5.80;4.90;;;14.80;99.90;;;;;;5087486;28;20016;-32
2022/06/16 03:30:34;;;;;;;8.00;5.90;;;14.60;99.90;;;;;;5094855;27;20552;-32
2022/06/16 03:33:00;;;;;;;6.03;5.18;;;14.40;99.90;;;;;;5077905;28;20036;-32
2022/06/16 03:35:26;;;;;;;5.60;5.05;;;14.40;99.90;;;;;;5081048;28;20024;-31
2022/06/16 03:37:55;;;;;;;5.88;5.30;;;14.50;99.90;;;;;;5081539;28;20073;-32
2022/06/16 03:40:22;;;;;;;7.07;5.07;;;14.60;99.90;;;;;;5074555;28;20043;-32
2022/06/16 03:42:48;;;;;;;6.63;5.28;;;14.80;99.90;;;;;;5087576;28;20038;-31
2022/06/16 03:45:14;;;;;;;6.53;5.57;;;14.90;99.90;;;;;;5082592;28;20031;-32
2022/06/16 03:47:39;;;;;;;7.75;5.45;;;15.00;99.90;;;;;;5087122;28;20036;-31
2022/06/16 03:50:06;;;;;;;6.40;5.30;;;15.10;99.90;;;;;;5087742;28;20027;-33
2022/06/16 03:52:34;;;;;;;7.53;5.63;;;15.20;99.90;;;;;;5081232;28;21096;-32
2022/06/16 03:55:00;;;;;;;6.30;5.70;;;15.30;99.90;;;;;;5074021;28;20032;-31
2022/06/16 03:57:26;;;;;;;6.00;5.28;;;15.30;99.90;;;;;;5081336;28;20063;-31
2022/06/16 03:59:51;;;;;;;7.63;5.93;;;15.40;99.90;;;;;;5089808;28;21286;-32
2022/06/16 04:02:17;;;;;;;6.68;5.63;;;15.40;99.90;;;;;;5072745;27;20137;-32
2022/06/16 04:04:43;;;;;;;5.70;5.10;;;15.40;99.90;;;;;;5085839;28;20400;-32
2022/06/16 04:07:09;;;;;;;5.45;4.88;;;15.50;99.90;;;;;;5081968;28;20046;-32
2022/06/16 04:09:36;;;;;;;7.68;5.38;;;15.40;99.90;;;;;;5085839;28;20519;-32
2022/06/16 04:12:02;;;;;;;7.07;5.47;;;15.30;99.90;;;;;;5085762;28;20519;-32
2022/06/16 04:14:27;;;;;;;5.88;5.28;;;15.20;99.90;;;;;;5080974;28;20047;-31
2022/06/16 04:16:54;;;;;;;6.53;5.75;;;15.30;99.90;;;;;;5088051;28;20082;-31
2022/06/16 04:19:21;;;;;;;9.35;6.47;;;15.20;99.90;;;;;;5087349;28;20028;-31
2022/06/16 04:21:48;;;;;;;6.82;5.93;;;15.10;99.90;;;;;;5083302;28;20063;-32
2022/06/16 04:24:15;;;;;;;6.43;5.43;;;15.20;99.90;;;;;;5073669;28;20092;-33
2022/06/16 04:26:42;;;;;;;5.97;5.38;;;15.30;99.90;;;;;;5077685;28;20097;-32
2022/06/16 04:29:09;;;;;;;6.43;4.93;;;15.40;99.90;;;;;;5085604;28;20433;-32
2022/06/16 04:31:36;;;;;;;6.22;5.50;;;15.50;99.90;;;;;;5078511;28;20038;-31
2022/06/16 04:34:02;;;;;;;5.72;5.13;;;15.60;99.90;;;;;;5078250;28;20023;-32
2022/06/16 04:36:27;;;;;;;6.88;5.22;;;15.70;99.90;;;;;;5093014;28;20035;-31
2022/06/16 04:38:54;;;;;;;5.75;5.22;;;15.80;99.90;;;;;;5084198;28;20058;-32
2022/06/16 04:41:20;;;;;;;6.63;5.30;;;15.90;99.90;;;;;;5084781;28;20037;-32
2022/06/16 04:43:46;;;;;;;6.25;5.65;;;16.00;99.90;;;;;;5081412;28;20099;-32
2022/06/16 04:46:14;;;;;;;7.18;6.47;;;16.00;99.90;;;;;;5083999;28;20120;-31
2022/06/16 04:48:39;;;;;;;6.72;5.60;;;16.20;99.90;;;;;;5084775;28;20442;-32
2022/06/16 04:51:05;;;;;;;7.43;6.00;;;16.50;99.90;;;;;;5078914;28;20028;-32
2022/06/16 04:53:32;;;;;;;10.00;6.78;;;16.40;99.90;;;;;;5078909;28;20116;-32
2022/06/16 04:56:00;;;;;;;7.95;6.35;;;16.40;99.90;;;;;;5074755;28;20059;-32
2022/06/16 04:58:27;;;;;;;10.55;6.60;;;16.40;99.90;;;;;;5079993;28;20562;-32
2022/06/16 05:00:54;;;;;;;6.55;5.90;;;16.70;99.90;;;;;;5086283;27;20039;-32
2022/06/16 05:03:21;;;;;;;7.45;6.28;;;17.00;99.90;;;;;;5084801;28;20109;-32
2022/06/16 05:05:48;;;;;;;8.25;6.57;;;17.00;99.90;;;;;;5091240;28;20035;-33
2022/06/16 05:08:16;;;;;;;7.95;6.68;;;17.00;99.90;;;;;;5088458;28;20023;-31
2022/06/16 05:10:42;;;;;;;7.77;6.97;;;17.10;99.90;;;;;;5079067;28;20028;-32
2022/06/16 05:13:08;;;;;;;7.70;6.90;;;17.40;99.90;;;;;;5087014;28;20013;-32
2022/06/16 05:15:35;;;;;;;8.65;6.85;;;17.70;99.90;;;;;;5082840;28;20047;-32
2022/06/16 05:18:02;;;;;;;8.27;6.47;;;17.90;99.90;;;;;;5097867;28;20153;-32
2022/06/16 05:20:28;;;;;;;8.32;6.78;;;18.10;99.90;;;;;;5090703;28;20036;-33
2022/06/16 05:22:53;;;;;;;7.30;6.53;;;18.30;99.90;;;;;;5085863;28;20524;-32
2022/06/16 05:25:19;;;;;;;7.60;6.32;;;18.20;99.90;;;;;;5077944;28;20031;-32
2022/06/16 05:27:44;;;;;;;7.00;6.30;;;18.20;99.90;;;;;;5077933;28;20036;-32
2022/06/16 05:30:10;;;;;;;7.18;6.30;;;18.30;99.90;;;;;;5084209;28;20661;-32
2022/06/16 05:32:36;;;;;;;6.68;5.80;;;18.40;99.90;;;;;;5088357;27;20476;-32
2022/06/16 05:35:02;;;;;;;7.75;6.22;;;18.40;99.90;;;;;;5089214;28;20019;-32
2022/06/16 05:37:27;;;;;;;6.78;5.57;;;18.30;99.90;;;;;;5087549;28;20027;-32
2022/06/16 05:39:53;;;;;;;10.02;6.45;;;18.40;99.90;;;;;;5085170;28;20483;-32
2022/06/16 05:42:20;;;;;;;8.48;5.75;;;18.50;99.90;;;;;;5086282;28;20197;-32
2022/06/16 05:44:45;;;;;;;7.53;5.15;;;18.60;99.90;;;;;;5087487;28;20024;-32
2022/06/16 05:47:11;;;;;;;8.65;5.55;;;18.80;99.90;;;;;;5088039;28;20076;-32
2022/06/16 05:49:38;;;;;;;6.97;5.90;;;19.00;99.90;;;;;;5090543;28;20023;-32
2022/06/16 05:52:15;;;;;;;8.63;5.63;;;19.30;99.90;;;;;;5081392;28;20169;-32
2022/06/16 05:54:41;;;;;;;8.23;5.85;;;19.50;99.90;;;;;;5086195;28;20040;-32
2022/06/16 05:57:08;;;;;;;6.35;5.65;;;19.60;99.90;;;;;;5079329;28;20043;-32
2022/06/16 05:59:35;;;;;;;6.82;5.40;;;19.70;99.90;;;;;;5081112;28;20045;-33
2022/06/16 06:02:01;;;;;;;7.10;5.72;;;19.90;99.90;;;;;;5083129;27;20035;-32
2022/06/16 06:04:27;;;;;;;6.05;5.45;;;20.00;99.90;;;;;;5085557;28;20029;-32
2022/06/16 06:06:53;;;;;;;5.90;5.30;;;20.30;99.90;;;;;;5089156;28;20062;-33
2022/06/16 06:17:32;;;;;;;5.30;4.70;;;20.40;99.90;;;;;;5082028;28;20043;-32
2022/06/16 06:19:58;;;;;;;6.00;4.93;;;20.60;99.90;;;;;;5088620;28;20028;-32
2022/06/16 06:22:24;;;;;;;7.18;4.95;;;20.90;99.90;;;;;;5084487;28;20468;-32
2022/06/16 06:24:55;;;;;;;6.00;4.55;;;20.90;99.90;;;;;;5081704;28;20507;-32
2022/06/16 06:27:32;;;;;;;8.38;5.10;;;20.90;99.90;;;;;;5075231;28;20020;-32
2022/06/16 06:29:58;;;;;;;8.18;4.57;;;21.00;99.90;;;;;;5084335;28;20031;-33
2022/06/16 06:32:24;;;;;;;6.88;5.40;;;21.00;99.90;;;;;;5084986;27;20032;-32
2022/06/16 06:34:51;;;;;;;7.22;4.60;;;20.90;99.90;;;;;;5080191;28;20077;-32
2022/06/16 06:37:20;;;;;;;6.45;4.25;;;21.00;99.90;;;;;;5085258;28;20031;-32
2022/06/16 06:39:46;;;;;;;5.18;4.40;;;21.20;99.90;;;;;;5078782;28;20060;-33
2022/06/16 06:42:11;;;;;;;5.00;4.50;;;21.40;99.90;;;;;;5087226;28;20504;-32
2022/06/16 06:44:37;;;;;;;5.85;4.30;;;21.40;99.90;;;;;;5078900;28;20028;-32
2022/06/16 06:47:04;;;;;;;7.05;4.72;;;21.50;99.50;;;;;;5080188;28;20165;-32
2022/06/16 06:49:30;;;;;;;4.60;4.20;;;21.50;99.30;;;;;;5085859;28;20559;-31
2022/06/16 06:51:55;;;;;;;7.35;4.78;;;21.70;99.90;;;;;;5077602;28;20053;-33
2022/06/16 06:54:22;;;;;;;8.40;4.50;;;21.80;99.90;;;;;;5080959;28;20790;-33
2022/06/16 06:56:49;;;;;;;4.80;4.40;;;22.00;99.40;;;;;;5068803;28;20048;-32
2022/06/16 06:59:18;;;;;;;6.60;5.05;;;21.90;97.20;;;;;;5074262;28;20020;-32
2022/06/16 07:01:45;;;;;;;9.93;4.47;;;21.80;99.30;;;;;;5070874;28;20035;-32
2022/06/16 07:04:11;;;;;;;5.68;4.25;;;21.70;98.60;;;;;;5075085;28;20024;-32
2022/06/16 07:06:37;;;;;;;4.65;4.22;;;21.50;99.90;;;;;;5075166;28;20028;-32
2022/06/16 07:09:03;;;;;;;4.50;4.10;;;21.50;99.90;;;;;;5080282;28;20119;-32
2022/06/16 07:11:29;;;;;;;7.03;4.78;;;21.40;99.90;;;;;;5085694;28;20119;-32
2022/06/16 07:13:54;;;;;;;6.05;4.28;;;21.60;99.90;;;;;;5067745;28;20548;-32
2022/06/16 07:16:21;;;;;;;4.38;3.85;;;21.90;99.90;;;;;;5073836;28;20107;-32
2022/06/16 07:18:48;;;;;;;5.67;4.23;;;22.30;99.10;;;;;;5085693;28;20019;-31
2022/06/16 07:21:14;;;;;;;4.38;3.85;;;22.60;98.50;;;;;;5081993;28;20034;-31
2022/06/16 07:23:41;;;;;;;7.15;4.35;;;22.80;96.80;;;;;;5080311;28;20083;-31
2022/06/16 07:26:07;;;;;;;5.50;4.65;;;22.80;95.40;;;;;;5079341;28;20054;-31
2022/06/16 07:28:32;;;;;;;6.07;3.85;;;22.90;94.30;;;;;;5081221;28;20024;-32
2022/06/16 07:30:58;;;;;;;4.35;3.95;;;23.00;93.80;;;;;;5078391;27;20036;-32
2022/06/16 07:33:24;;;;;;;7.85;4.53;;;23.20;92.40;;;;;;5089237;28;20506;-31
2022/06/16 07:35:52;;;;;;;6.90;4.53;;;23.20;93.00;;;;;;5071750;28;20039;-31
2022/06/16 07:38:18;;;;;;;8.13;4.30;;;23.30;93.30;;;;;;5075638;28;20474;-31
2022/06/16 07:40:44;;;;;;;4.78;4.28;;;23.50;93.30;;;;;;5078393;28;20032;-31
2022/06/16 07:43:09;;;;;;;8.25;4.50;;;23.80;94.00;;;;;;5071022;28;20388;-31
2022/06/16 07:45:37;;;;;;;9.70;4.50;;;23.90;91.60;;;;;;5080054;28;20024;-31
2022/06/16 07:48:05;;;;;;;7.60;4.35;;;24.10;87.50;;;;;;5075983;28;20038;-33
2022/06/16 07:50:32;;;;;;;;;;;23.90;90.10;;;;;;5084833;28;20032;-32
2022/06/16 07:52:58;;;;;;;4.38;3.97;;;23.90;90.20;;;;;;5088923;28;19915;-31
2022/06/16 07:55:23;;;;;;;4.70;4.00;;;24.10;91.60;;;;;;5086762;28;20032;-31
2022/06/16 07:57:50;;;;;;;5.50;4.70;;;24.10;90.40;;;;;;5096513;28;20075;-31
2022/06/16 08:00:23;;;;;;;5.82;4.30;;;23.90;86.80;;;;;;5086196;28;20031;-31
2022/06/16 08:02:49;;;;;;;7.20;4.63;;;23.80;88.60;;;;;;5090224;28;20057;-31
2022/06/16 08:05:14;;;;;;;4.50;4.05;;;23.60;90.30;;;;;;5085937;28;20111;-31
2022/06/16 08:07:41;;;;;;;4.95;4.38;;;23.40;87.40;;;;;;5089602;28;20115;-31
2022/06/16 08:10:11;;;;;;;10.27;4.10;;;23.40;91.20;;;;;;5082803;28;20028;-31
2022/06/16 08:12:37;;;;;;;6.03;4.20;;;23.60;91.40;;;;;;5076683;28;20044;-31
2022/06/16 08:15:04;;;;;;;7.72;4.20;;;24.10;90.10;;;;;;5081409;28;20118;-32
2022/06/16 08:17:36;;;;;;;5.95;4.03;;;24.30;88.70;;;;;;5083022;28;20583;-31
2022/06/16 08:20:03;;;;;;;6.03;4.10;;;24.70;86.30;;;;;;5086418;28;20450;-31
2022/06/16 08:22:29;;;;;;;6.20;4.00;;;25.00;84.90;;;;;;5082442;28;20024;-31
2022/06/16 08:24:55;;;;;;;4.97;4.45;;;25.40;77.30;;;;;;5088505;28;20079;-32
2022/06/16 08:27:26;;;;;;;5.93;3.72;;;25.70;69.40;;;;;;5088081;28;20024;-31
2022/06/16 08:29:52;;;;;;;5.40;3.75;;;25.80;73.40;;;;;;5083897;28;20041;-31
2022/06/16 08:32:20;;;;;;;5.95;3.85;;;26.10;72.00;;;;;;5084688;27;20404;-32
2022/06/16 08:34:46;;;;;;;5.47;3.90;;;25.90;58.00;;;;;;5083569;28;20031;-31
2022/06/16 08:37:11;;;;;;;9.52;4.10;;;26.00;57.20;;;;;;5089171;28;20032;-32
2022/06/16 08:39:37;;;;;;;3.38;3.08;;;26.00;62.10;;;;;;5092502;28;20031;-31
2022/06/16 08:42:22;;;;;;;4.72;3.90;;;26.10;55.20;;;;;;5080918;28;20114;-32
2022/06/16 08:45:11;;;;;;;7.22;3.67;;;26.30;62.10;;;;;;5080326;28;20028;-32
2022/06/16 08:48:13;;;;;;;4.65;3.60;;;26.80;59.40;;;;;;5072079;28;20024;-33
2022/06/16 08:50:48;;;;;;;5.32;3.55;;;26.50;55.80;;;;;;5094201;28;20118;-32
2022/06/16 08:53:39;;;;;;;4.28;2.80;;;26.20;53.50;;;;;;5089423;28;20780;-32
2022/06/16 08:56:11;;;;;;;3.20;2.90;;;25.90;52.20;;;;;;5090173;28;20047;-32
2022/06/16 08:59:07;;;;;;;3.88;3.25;;;25.90;53.80;;;;;;5086099;28;20032;-31
2022/06/16 09:01:55;;;;;;;3.67;3.30;;;25.90;54.90;;;;;;5091525;27;20036;-32
2022/06/16 09:04:21;;;;;;;4.35;3.08;;;26.40;54.70;;;;;;5086472;28;20108;-32
2022/06/16 09:06:52;;;;;;;6.07;3.17;;;26.90;52.90;;;;;;5085497;28;20040;-32
2022/06/16 09:13:07;;;;;;;6.38;3.25;;;27.10;48.20;;;;;;5084859;28;20560;-32
2022/06/16 09:15:42;;;;;;;7.20;3.20;;;27.20;43.90;;;;;;5082630;28;20146;-31
2022/06/16 09:18:10;;;;;;;4.10;3.70;;;27.20;44.10;;;;;;5090829;28;20051;-32
2022/06/16 09:20:46;;;;;;;3.83;2.92;;;27.00;44.80;;;;;;5080009;28;20127;-32
2022/06/16 09:23:49;;;;;;;3.88;3.20;;;26.90;42.40;;;;;;5087782;28;20036;-32
2022/06/16 09:26:24;;;;;;;4.20;2.92;;;26.90;43.10;;;;;;5081745;28;20024;-31
2022/06/16 09:29:01;;;;;;;3.60;3.30;;;27.30;43.60;;;;;;5092015;28;20034;-31
2022/06/16 09:31:32;;;;;;;;;;;27.90;44.20;;;;;;5083667;28;20441;-32
2022/06/16 09:34:12;;;;;;;3.97;3.33;;;28.00;41.90;;;;;;5094879;28;20053;-32
2022/06/16 09:36:43;;;;;;;3.30;3.00;;;27.70;43.40;;;;;;5080843;28;20052;-33
2022/06/16 09:39:24;;;;;;;3.25;3.00;;;28.00;41.00;;;;;;5079644;28;20529;-32
2022/06/16 09:44:54;;;;;;;3.88;3.17;;;27.30;40.90;;;;;;5088629;28;20161;-32
2022/06/16 09:47:26;;;;;;;4.38;2.72;;;26.80;43.80;;;;;;5096958;28;20028;-32
2022/06/16 09:49:59;;;;;;;3.75;3.00;;;26.60;42.10;;;;;;5083645;28;20556;-31
2022/06/16 09:52:34;;;;;;;4.30;3.40;;;26.50;43.30;;;;;;5088611;28;20040;-31
2022/06/16 09:55:43;;;;;;;7.03;3.40;;;26.40;43.60;;;;;;5087745;28;20311;-31
2022/06/16 09:58:25;;;;;;;4.63;3.05;;;26.10;45.20;;;;;;5088091;28;20135;-31
2022/06/16 10:00:55;;;;;;;4.53;3.50;;;26.00;42.50;;;;;;5091420;27;20613;-32
2022/06/16 10:03:29;;;;;;;3.15;2.78;;;26.40;45.30;;;;;;5086216;28;20509;-31
2022/06/16 10:06:10;;;;;;;3.28;3.05;;;26.80;42.60;;;;;;5091112;28;20085;-32
2022/06/16 10:08:59;;;;;;;5.38;3.40;;;27.00;42.70;;;;;;5091059;28;20047;-32
2022/06/16 10:11:49;;;;;;;4.43;2.88;;;27.00;43.00;;;;;;5072107;28;20025;-31
2022/06/16 10:14:24;;;;;;;4.40;3.50;;;26.80;44.20;;;;;;5090745;28;20028;-32
2022/06/16 10:16:55;;;;;;;3.45;3.13;;;27.00;44.30;;;;;;5090769;28;20024;-32
2022/06/16 10:19:23;;;;;;;3.35;3.03;;;26.80;44.30;;;;;;5086788;28;20035;-32
2022/06/16 10:21:49;;;;;;;4.85;3.38;;;26.80;44.90;;;;;;5086674;28;20059;-32
2022/06/16 10:24:20;;;;;;;3.88;3.30;;;26.80;45.00;;;;;;5090912;28;20500;-32
2022/06/16 10:26:45;;;;;;;3.78;3.40;;;26.80;46.80;;;;;;5089339;28;20105;-33
2022/06/16 10:29:22;;;;;;;3.75;3.42;;;27.10;43.30;;;;;;5092967;28;20472;-32
2022/06/16 10:31:49;;;;;;;3.47;3.17;;;27.30;44.10;;;;;;5088918;27;20404;-32
2022/06/16 10:34:19;;;;;;;6.33;3.23;;;27.30;43.30;;;;;;5087937;28;20028;-31
2022/06/16 10:36:54;;;;;;;4.20;3.28;;;27.30;45.90;;;;;;5084043;28;20323;-32
2022/06/16 10:39:43;;;;;;;3.30;3.00;;;27.70;45.50;;;;;;5083044;28;20019;-32
2022/06/16 10:42:19;;;;;;;4.18;2.95;;;27.50;41.40;;;;;;5090753;28;20032;-32
2022/06/16 10:44:57;;;;;;;3.78;3.20;;;27.10;41.40;;;;;;5089267;28;20044;-32
2022/06/16 10:47:31;;;;;;;2.90;2.70;;;27.00;40.60;;;;;;5084310;28;20512;-32
2022/06/16 10:49:57;;;;;;;3.88;3.00;;;27.00;40.20;;;;;;5089368;28;20719;-32
2022/06/16 10:52:34;;;;;;;4.45;2.80;;;27.00;40.30;;;;;;5083341;28;20089;-32
2022/06/16 10:55:11;;;;;;;3.70;2.60;;;26.90;39.20;;;;;;5093396;28;20019;-31
2022/06/16 10:57:47;;;;;;;2.88;2.67;;;26.40;39.20;;;;;;5088227;28;20048;-31
2022/06/16 11:00:19;;;;;;;4.25;3.17;;;26.20;39.70;;;;;;5089869;28;20032;-31
2022/06/16 11:03:03;;;;;;;4.97;3.03;;;26.10;40.80;;;;;;5096647;27;20032;-32
2022/06/16 11:05:32;;;;;;;4.50;2.95;;;26.40;41.20;;;;;;5086032;28;20420;-32
2022/06/16 11:08:10;;;;;;;3.60;2.65;;;26.70;42.90;;;;;;5088109;28;20028;-32
2022/06/16 11:10:40;;;;;;;3.20;2.90;;;26.90;40.40;;;;;;5085825;28;20050;-32
2022/06/16 11:13:14;;;;;;;5.25;3.40;;;27.00;40.60;;;;;;5094311;28;20046;-31
2022/06/16 11:15:42;;;;;;;3.70;3.33;;;27.20;42.40;;;;;;5089445;28;20902;-33
2022/06/16 11:18:12;;;;;;;4.18;3.17;;;27.50;43.70;;;;;;5083756;28;20153;-31
2022/06/16 11:20:39;;;;;;;4.75;3.40;;;27.70;41.60;;;;;;5085355;28;20028;-33
2022/06/16 11:23:25;;;;;;;3.55;3.00;;;27.60;41.30;;;;;;5085943;28;20027;-32
2022/06/16 11:25:59;;;;;;;5.30;3.25;;;27.60;40.40;;;;;;5085069;28;20039;-32
2022/06/16 11:28:27;;;;;;;4.07;3.67;;;27.10;38.00;;;;;;5086542;28;20025;-32
2022/06/16 11:30:58;;;;;;;4.80;3.33;;;26.80;38.90;;;;;;5089093;27;20028;-32
2022/06/16 11:36:51;;;;;;;4.78;3.58;;;27.40;40.40;;;;;;5081727;28;20445;-32
2022/06/16 11:39:19;;;;;;;4.63;3.22;;;27.50;42.20;;;;;;5083904;28;20559;-32
2022/06/16 11:41:49;;;;;;;4.10;3.50;;;27.70;41.40;;;;;;5082305;28;20174;-32
2022/06/16 11:44:36;;;;;;;3.53;3.20;;;27.60;40.90;;;;;;5090300;28;20400;-32
2022/06/16 11:47:23;;;;;;;3.25;2.10;;;27.60;41.80;;;;;;5081503;28;20016;-33
2022/06/16 11:49:58;;;;;;;4.75;3.10;;;27.50;39.30;;;;;;5081674;28;20063;-31
2022/06/16 11:52:37;;;;;;;7.22;2.83;;;27.40;40.50;;;;;;5089962;28;20030;-32
2022/06/16 11:55:26;;;;;;;3.55;3.08;;;27.60;41.10;;;;;;5089832;28;20036;-32
2022/06/16 11:58:13;;;;;;;3.28;2.97;;;27.50;38.40;;;;;;5087226;28;20134;-32
2022/06/16 12:00:42;;;;;;;4.55;2.90;;;27.50;39.40;;;;;;5082533;27;20122;-31
2022/06/16 12:03:47;;;;;;;2.33;2.08;;;27.50;38.80;;;;;;5089290;28;20044;-31
2022/06/16 12:06:30;;;;;;;5.85;3.13;;;27.50;37.80;;;;;;5072162;28;20070;-32
2022/06/16 12:09:08;;;;;;;4.13;2.90;;;27.40;38.90;;;;;;5084616;28;20020;-31
2022/06/16 12:11:42;;;;;;;4.15;3.10;;;27.40;37.90;;;;;;5087455;28;20526;-32
2022/06/16 12:14:13;;;;;;;3.92;2.92;;;27.50;41.60;;;;;;5085859;28;20028;-32
2022/06/16 12:17:18;;;;;;;3.10;2.55;;;27.60;40.20;;;;;;5081618;28;20071;-32
2022/06/16 12:20:11;;;;;;;4.30;3.00;;;27.20;38.40;;;;;;5086488;28;20055;-32
2022/06/16 12:23:00;;;;;;;3.95;2.80;;;27.10;39.80;;;;;;5088999;28;20233;-32
2022/06/16 12:25:45;;;;;;;3.25;2.95;;;27.40;41.80;;;;;;5088232;28;20024;-32
2022/06/16 12:28:13;;;;;;;2.90;2.58;;;27.30;39.50;;;;;;5084148;28;20699;-33
2022/06/16 12:30:51;;;;;;;5.25;2.17;;;27.20;40.10;;;;;;5092453;28;20071;-33
2022/06/16 12:33:33;;;;;;;4.30;2.60;;;27.00;39.10;;;;;;5086236;28;20056;-33
2022/06/16 12:36:17;;;;;;;2.83;2.60;;;27.20;42.50;;;;;;5082146;28;20034;-32
2022/06/16 12:38:51;;;;;;;2.92;2.42;;;27.30;38.50;;;;;;5089929;28;20024;-32
2022/06/16 12:41:24;;;;;;;2.65;2.45;;;27.30;40.00;;;;;;5087784;28;20036;-32
2022/06/16 12:44:10;;;;;;;4.05;2.63;;;27.20;38.50;;;;;;5087698;28;20028;-33
2022/06/16 12:46:49;;;;;;;3.42;2.40;;;27.10;38.00;;;;;;5085048;28;20097;-32
2022/06/16 12:49:34;;;;;;;4.53;2.88;;;27.00;39.40;;;;;;5078000;28;20057;-32
2022/06/16 12:52:07;;;;;;;2.38;2.10;;;27.10;37.90;;;;;;5085736;28;20430;-32
2022/06/16 12:54:43;;;;;;;3.75;2.58;;;27.10;38.10;;;;;;5089541;28;20027;-32
2022/06/16 12:57:16;;;;;;;3.47;2.22;;;27.20;37.70;;;;;;5076918;28;20524;-32
2022/06/16 12:59:47;;;;;;;5.18;2.17;;;27.20;37.50;;;;;;5081025;28;20028;-32
2022/06/16 13:02:22;;;;;;;4.43;2.40;;;27.40;34.50;;;;;;5083832;27;20392;-32
2022/06/16 13:04:50;;;;;;;3.95;2.30;;;27.40;34.80;;;;;;5084199;28;22344;-32
2022/06/16 13:07:27;;;;;;;4.50;2.70;;;27.50;37.60;;;;;;5081844;28;20385;-33
2022/06/16 13:09:52;;;;;;;3.65;2.63;;;27.50;34.00;;;;;;5083173;28;20032;-32
2022/06/16 13:12:24;;;;;;;2.58;2.10;;;27.40;33.20;;;;;;5085645;28;20036;-32
2022/06/16 13:14:58;;;;;;;3.92;2.10;;;27.40;34.40;;;;;;5088846;28;21066;-33
2022/06/16 13:17:28;;;;;;;1.88;1.77;;;27.40;28.20;;;;;;5087932;28;20103;-33
2022/06/16 13:19:58;;;;;;;4.00;2.35;;;27.30;30.80;;;;;;5085526;28;20032;-33
2022/06/16 13:22:31;;;;;;;6.00;2.50;;;27.30;32.30;;;;;;5079404;28;20031;-33
2022/06/16 13:24:59;;;;;;;5.03;2.40;;;27.30;33.20;;;;;;5091693;28;20038;-32
2022/06/16 13:27:27;;;;;;;4.80;2.50;;;27.20;33.40;;;;;;5085456;28;20033;-32
2022/06/16 13:30:04;;;;;;;2.80;2.58;;;27.30;34.10;;;;;;5086793;28;20041;-32
2022/06/16 13:33:00;;;;;;;3.65;2.17;;;27.30;32.20;;;;;;5079676;28;20032;-32
2022/06/16 13:35:31;;;;;;;4.57;2.67;;;27.30;32.50;;;;;;5084079;28;20024;-32
2022/06/16 13:38:02;;;;;;;3.47;2.08;;;27.30;34.80;;;;;;5088861;28;20481;-32